METAR Data
IDs: Format: Raw Decoded Include TAF

Data at: 1716 UTC 19 Sep 2018

KSRC 191656Z AUTO VRB03KT 10SM CLR 33/24 A3001 RMK AO2 SLP167 T03330244
KSRC 191556Z AUTO 00000KT 10SM CLR 32/24 A3002 RMK AO2 SLP168 T03220244
KSRC 191456Z AUTO 19003KT 10SM CLR 29/24 A3001 RMK AO2 SLP166 6//// T02940244 51011
KSRC 191356Z AUTO 00000KT 10SM OVC100 26/25 A3000 RMK AO2 SLP163 T02610250
KSRC 191256Z AUTO 00000KT 5SM HZ CLR 23/ A2999 RMK AO2 SLP162 T0233
KSRC 191241Z AUTO 00000KT 4SM BR CLR 22/22 A2999 RMK AO2
KSRC 191228Z AUTO 00000KT 2SM BR CLR 22/22 A2999 RMK AO2
KSRC 191226Z AUTO 00000KT 1SM BR CLR 22/22 A2999 RMK AO2
KSRC 191217Z AUTO 00000KT 1/2SM FG CLR 22/ A2998 RMK AO2
KSRC 191156Z AUTO 00000KT 1 1/2SM BR CLR 22/ A2998 RMK AO2 SLP156 T0217 10228 20217 53012
KSRC 191148Z AUTO 00000KT 1 3/4SM BR CLR 22/ A2998 RMK AO2
KSRC 191056Z AUTO 00000KT 4SM HZ CLR 22/ A2997 RMK AO2 SLP152 T0217
KSRC 190956Z AUTO 00000KT 4SM HZ CLR 22/ A2995 RMK AO2 SLP146 T0222
KSRC 190856Z AUTO 00000KT 4SM BR CLR 22/22 A2994 RMK AO2 SLP143 T02220222 55001
KSRC 190756Z AUTO 29003KT 4SM BR CLR 22/22 A2994 RMK AO2 SLP142 T02220222
KSRC 190656Z AUTO 00000KT 5SM BR CLR 23/23 A2994 RMK AO2 SLP142 T02280228
KSRC 190556Z AUTO 00000KT 7SM CLR 23/23 A2995 RMK AO2 SLP144 T02280228 10283 20228 58001
KSRC 190456Z AUTO 00000KT 9SM CLR 23/23 A2995 RMK AO2 SLP145 T02330233 403500211
KSRC 190356Z AUTO 00000KT 9SM CLR 24/24 A2995 RMK AO2 SLP146 T02390239
KSRC 190256Z AUTO 29003KT 10SM CLR 24/24 A2995 RMK AO2 SLP145 T02390239 53012
KSRC 190156Z AUTO 00000KT 10SM CLR 25/25 A2994 RMK AO2 SLP142 T02500250
KSRC 190056Z AUTO 00000KT 10SM CLR 26/24 A2991 RMK AO2 SLP135 T02610244
KSRC 182356Z AUTO 00000KT 10SM CLR 29/24 A2991 RMK AO2 SLP133 T02890244 10350 20289 55004
KSRC 182256Z AUTO 19003KT 10SM CLR 33/23 A2991 RMK AO2 SLP132 T03330233
KSRC 182156Z AUTO 18005KT 10SM CLR 34/23 A2991 RMK AO2 SLP133 T03440228
KSRC 182056Z AUTO 18006KT 10SM FEW050 34/23 A2992 RMK AO2 SLP136 T03440228 56020
KSRC 181956Z AUTO VRB03KT 10SM CLR 34/23 A2993 RMK AO2 SLP140 T03440228
KSRC 181856Z AUTO 17005KT 10SM CLR 34/23 A2996 RMK AO2 SLP147 T03440228
KSRC 181756Z AUTO 21005KT 10SM CLR 33/23 A2998 RMK AO2 SLP156 T03330228 10333 20211 58013
KSRC 181656Z AUTO 18004KT 10SM CLR 33/23 A3000 RMK AO2 SLP161 T03280233
KSRC 181556Z AUTO 18004KT 10SM CLR 31/24 A3001 RMK AO2 SLP166 T03110239
KSRC 181456Z AUTO 00000KT 10SM CLR 29/23 A3002 RMK AO2 SLP169 T02890228 51005
KSRC 181356Z AUTO 00000KT 10SM CLR 26/24 A3002 RMK AO2 SLP169 T02560244
KSRC 181256Z AUTO 00000KT 8SM CLR 22/22 A3002 RMK AO2 SLP170 T02220222
KSRC 181213Z AUTO 00000KT 3SM BR CLR 21/ A3001 RMK AO2
KSRC 181156Z AUTO 00000KT 2 1/2SM BR CLR 21/ A3000 RMK AO2 SLP164 7//// T0211 10222 20211 53008
KSRC 181056Z AUTO 00000KT 5SM BR CLR 21/21 A2999 RMK AO2 SLP159 T02110211
KSRC 181019Z AUTO 00000KT 4SM BR CLR 21/21 A2998 RMK AO2
KSRC 180956Z AUTO 00000KT 2 1/2SM BR CLR 22/22 A2998 RMK AO2 SLP157 T02170217
KSRC 180856Z AUTO 00000KT 8SM CLR 22/22 A2998 RMK AO2 SLP155 T02170217 50001
KSRC 180756Z AUTO 00000KT 8SM CLR 22/ A2998 RMK AO2 SLP156 T0217
KSRC 180656Z AUTO 00000KT 10SM CLR 22/22 A2998 RMK AO2 SLP156 T02220222
KSRC 180556Z AUTO 00000KT 10SM CLR 22/22 A2998 RMK AO2 SLP155 6//// T02220222 10278 20222 50003